createdAt,value
2023-03-15T00:00:09.834Z,97.34
2023-03-15T00:01:09.833Z,98.19
2023-03-15T00:02:09.896Z,99.13
2023-03-15T00:03:09.849Z,99.99
2023-03-15T00:04:09.847Z,99.99
2023-03-15T00:05:09.850Z,99.99
2023-03-15T00:06:09.843Z,99.99
2023-03-15T00:07:09.840Z,99.99
2023-03-15T00:08:09.846Z,99.99
2023-03-15T00:09:09.848Z,99.99
2023-03-15T00:10:09.860Z,99.99
2023-03-15T00:11:09.852Z,99.99
2023-03-15T00:12:09.854Z,99.99
2023-03-15T00:13:09.859Z,99.99
2023-03-15T00:14:09.858Z,99.99
2023-03-15T00:15:09.877Z,99.99
2023-03-15T00:16:09.901Z,99.99
2023-03-15T00:17:09.861Z,99.79
2023-03-15T00:18:09.883Z,97.34
2023-03-15T00:19:09.868Z,97.62
2023-03-15T00:20:09.871Z,98.10
2023-03-15T00:21:09.870Z,99.22
2023-03-15T00:22:09.873Z,99.22
2023-03-15T00:23:09.878Z,99.51
2023-03-15T00:24:09.881Z,99.41
2023-03-15T00:25:09.885Z,98.75
2023-03-15T00:26:09.897Z,96.96
2023-03-15T00:27:09.886Z,97.05
2023-03-15T00:28:09.883Z,98.47
2023-03-15T00:29:09.893Z,99.88
2023-03-15T00:30:09.890Z,99.99
2023-03-15T00:31:09.916Z,99.99
2023-03-15T00:32:09.892Z,99.79
2023-03-15T00:33:09.904Z,99.99
2023-03-15T00:34:09.938Z,99.99
2023-03-15T00:35:09.899Z,99.99
2023-03-15T00:36:09.932Z,99.99
2023-03-15T00:37:09.907Z,99.99
2023-03-15T00:38:09.906Z,99.98
2023-03-15T00:39:09.913Z,99.99
2023-03-15T00:40:09.904Z,99.99
2023-03-15T00:41:09.930Z,99.99
2023-03-15T00:42:09.911Z,99.99
2023-03-15T00:43:09.917Z,99.99
2023-03-15T00:44:09.917Z,99.99
2023-03-15T00:45:09.921Z,99.99
2023-03-15T00:46:09.996Z,99.99
2023-03-15T00:47:09.923Z,99.99
2023-03-15T00:48:09.956Z,99.99
2023-03-15T00:49:09.931Z,99.99
2023-03-15T00:50:09.945Z,99.99
2023-03-15T00:51:09.934Z,99.99
2023-03-15T00:52:09.927Z,99.99
2023-03-15T00:53:09.933Z,99.99
2023-03-15T00:54:09.932Z,99.99
2023-03-15T00:55:09.936Z,99.99
2023-03-15T00:56:09.939Z,99.99
2023-03-15T00:57:09.953Z,99.99
2023-03-15T00:58:09.944Z,99.99
2023-03-15T00:59:09.944Z,99.99
2023-03-15T01:00:09.945Z,99.99
2023-03-15T01:01:09.952Z,99.99
2023-03-15T01:02:10.058Z,99.99
2023-03-15T01:03:10.025Z,99.99
2023-03-15T01:04:09.952Z,99.99
2023-03-15T01:05:09.962Z,99.99
2023-03-15T01:06:09.981Z,99.99
2023-03-15T01:07:09.965Z,99.99
2023-03-15T01:08:09.958Z,99.99
2023-03-15T01:09:09.975Z,99.99
2023-03-15T01:10:09.964Z,99.99
2023-03-15T01:11:09.971Z,99.99
2023-03-15T01:12:09.967Z,99.99
2023-03-15T01:13:09.971Z,99.99
2023-03-15T01:14:09.968Z,99.99
2023-03-15T01:15:09.975Z,99.99
2023-03-15T01:16:10.010Z,99.99
2023-03-15T01:17:09.978Z,99.99
2023-03-15T01:18:09.976Z,99.99
2023-03-15T01:19:09.986Z,99.99
2023-03-15T01:20:09.985Z,99.99
2023-03-15T01:21:09.996Z,99.99
2023-03-15T01:22:10.002Z,99.99
2023-03-15T01:23:09.987Z,99.99
2023-03-15T01:24:09.988Z,99.99
2023-03-15T01:25:09.998Z,99.99
2023-03-15T01:26:09.992Z,99.99
2023-03-15T01:27:10.000Z,99.99
2023-03-15T01:28:09.994Z,99.99
2023-03-15T01:29:09.999Z,99.99
2023-03-15T01:30:10.014Z,99.99
2023-03-15T01:31:10.048Z,99.99
2023-03-15T01:32:10.009Z,99.99
2023-03-15T01:33:10.008Z,99.99
2023-03-15T01:34:10.004Z,99.99
2023-03-15T01:35:10.010Z,99.99
2023-03-15T01:36:10.032Z,99.99
2023-03-15T01:37:10.016Z,99.99
2023-03-15T01:38:10.029Z,99.99
2023-03-15T01:39:10.025Z,99.99
2023-03-15T01:40:10.017Z,99.99
2023-03-15T01:41:10.035Z,99.99
2023-03-15T01:42:10.025Z,99.99
2023-03-15T01:43:10.019Z,99.99
2023-03-15T01:44:10.021Z,99.99
2023-03-15T01:45:10.024Z,99.99
2023-03-15T01:46:10.027Z,99.99
2023-03-15T01:47:10.120Z,99.99
2023-03-15T01:48:10.042Z,99.99
2023-03-15T01:49:10.043Z,99.99
2023-03-15T01:50:10.025Z,99.99
2023-03-15T01:51:10.028Z,99.99
2023-03-15T01:52:10.038Z,99.99
2023-03-15T01:53:10.049Z,99.99
2023-03-15T01:54:10.061Z,99.99
2023-03-15T01:55:10.041Z,99.99
2023-03-15T01:56:10.033Z,99.99
2023-03-15T01:57:10.037Z,99.99
2023-03-15T01:58:10.030Z,99.99
2023-03-15T01:59:10.052Z,99.99
2023-03-15T02:00:10.044Z,99.99
2023-03-15T02:01:10.079Z,99.99
2023-03-15T02:02:10.079Z,99.99
2023-03-15T02:03:10.097Z,99.99
2023-03-15T02:04:10.040Z,99.99
2023-03-15T02:05:10.053Z,99.99
2023-03-15T02:06:10.043Z,99.99
2023-03-15T02:07:10.052Z,99.99
2023-03-15T02:08:10.047Z,99.99
2023-03-15T02:09:10.044Z,99.99
2023-03-15T02:10:10.059Z,99.99
2023-03-15T02:11:10.079Z,99.99
2023-03-15T02:12:10.056Z,99.99
2023-03-15T02:13:10.055Z,99.99
2023-03-15T02:14:10.041Z,99.99
2023-03-15T02:15:10.050Z,99.99
2023-03-15T02:16:10.056Z,99.99
2023-03-15T02:17:10.051Z,99.99
2023-03-15T02:18:10.045Z,99.99
2023-03-15T02:19:10.046Z,99.99
2023-03-15T02:20:10.055Z,99.99
2023-03-15T02:21:10.064Z,99.99
2023-03-15T02:22:10.048Z,99.99
2023-03-15T02:23:10.053Z,99.99
2023-03-15T02:24:10.047Z,99.99
2023-03-15T02:25:10.056Z,99.99
2023-03-15T02:26:10.103Z,99.99
2023-03-15T02:27:10.080Z,99.99
2023-03-15T02:28:10.050Z,99.99
2023-03-15T02:29:10.054Z,99.99
2023-03-15T02:30:10.064Z,99.99
2023-03-15T02:31:10.056Z,99.99
2023-03-15T02:32:10.057Z,99.99
2023-03-15T02:33:10.060Z,99.99
2023-03-15T02:34:10.053Z,99.99
2023-03-15T02:35:10.059Z,99.99
2023-03-15T02:36:10.109Z,99.99
2023-03-15T02:37:10.055Z,99.99
2023-03-15T02:38:10.052Z,99.99
2023-03-15T02:39:10.057Z,99.99
2023-03-15T02:40:10.052Z,99.99
2023-03-15T02:41:10.057Z,99.99
2023-03-15T02:42:10.073Z,99.99
2023-03-15T02:43:10.059Z,99.99
2023-03-15T02:44:10.081Z,99.99
2023-03-15T02:45:10.058Z,99.99
2023-03-15T02:46:10.156Z,99.99
2023-03-15T02:47:10.059Z,99.99
2023-03-15T02:48:10.061Z,99.99
2023-03-15T02:49:10.067Z,99.99
2023-03-15T02:50:10.061Z,99.99
2023-03-15T02:51:10.073Z,99.99
2023-03-15T02:52:10.080Z,99.99
2023-03-15T02:53:10.063Z,99.99
2023-03-15T02:54:10.062Z,99.99
2023-03-15T02:55:10.064Z,99.99
2023-03-15T02:56:10.066Z,99.99
2023-03-15T02:57:10.078Z,99.99
2023-03-15T02:58:10.088Z,99.99
2023-03-15T02:59:10.068Z,99.99
2023-03-15T03:00:10.068Z,99.99
2023-03-15T03:01:10.127Z,99.99
2023-03-15T03:02:10.136Z,99.99
2023-03-15T03:03:10.094Z,99.99
2023-03-15T03:04:10.075Z,99.99
2023-03-15T03:05:10.096Z,99.99
2023-03-15T03:06:10.067Z,99.99
2023-03-15T03:07:10.072Z,99.99
2023-03-15T03:08:10.082Z,99.99
2023-03-15T03:09:10.089Z,99.99
2023-03-15T03:10:10.070Z,99.99
2023-03-15T03:11:10.073Z,99.99
2023-03-15T03:12:10.075Z,99.99
2023-03-15T03:13:10.078Z,99.99
2023-03-15T03:14:10.113Z,99.99
2023-03-15T03:15:10.081Z,99.99
2023-03-15T03:16:10.071Z,99.99
2023-03-15T03:17:10.085Z,99.99
2023-03-15T03:18:10.074Z,99.99
2023-03-15T03:19:10.076Z,99.99
2023-03-15T03:20:10.084Z,99.99
2023-03-15T03:21:10.082Z,99.99
2023-03-15T03:22:10.070Z,99.99
2023-03-15T03:23:10.074Z,99.99
2023-03-15T03:24:10.086Z,99.99
2023-03-15T03:25:10.106Z,99.99
2023-03-15T03:26:10.073Z,99.99
2023-03-15T03:27:10.090Z,99.99
2023-03-15T03:28:10.072Z,99.99
2023-03-15T03:29:10.075Z,99.99
2023-03-15T03:30:10.093Z,99.99
2023-03-15T03:31:10.174Z,99.99
2023-03-15T03:32:10.071Z,99.99
2023-03-15T03:33:10.078Z,99.99
2023-03-15T03:34:10.073Z,99.99
2023-03-15T03:35:10.077Z,99.99
2023-03-15T03:36:10.124Z,99.99
2023-03-15T03:37:10.077Z,99.99
2023-03-15T03:38:10.071Z,99.99
2023-03-15T03:39:10.089Z,99.99
2023-03-15T03:40:10.076Z,99.99
2023-03-15T03:41:10.079Z,99.99
2023-03-15T03:42:10.074Z,99.99
2023-03-15T03:43:10.078Z,99.99
2023-03-15T03:44:10.083Z,99.99
2023-03-15T03:45:10.083Z,99.99
2023-03-15T03:46:10.140Z,99.99
2023-03-15T03:47:10.091Z,99.99
2023-03-15T03:48:10.077Z,99.99
2023-03-15T03:49:10.081Z,99.99
2023-03-15T03:50:10.094Z,99.99
2023-03-15T03:51:10.094Z,99.99
2023-03-15T03:52:10.079Z,99.99
2023-03-15T03:53:10.079Z,99.99
2023-03-15T03:54:10.080Z,99.99
2023-03-15T03:55:10.082Z,99.99
2023-03-15T03:56:10.092Z,99.99
2023-03-15T03:57:10.086Z,99.99
2023-03-15T03:58:10.090Z,99.99
2023-03-15T03:59:10.084Z,99.99
2023-03-15T04:00:10.081Z,99.99
2023-03-15T04:01:10.080Z,99.99
2023-03-15T04:02:10.281Z,99.99
2023-03-15T04:03:10.082Z,99.99
2023-03-15T04:04:10.080Z,99.99
2023-03-15T04:05:10.087Z,99.99
2023-03-15T04:06:10.083Z,99.99
2023-03-15T04:07:10.086Z,99.99
2023-03-15T04:08:10.090Z,99.99
2023-03-15T04:09:10.087Z,99.99
2023-03-15T04:10:10.101Z,99.99
2023-03-15T04:11:10.083Z,99.99
2023-03-15T04:12:10.118Z,99.99
2023-03-15T04:13:10.086Z,99.99
2023-03-15T04:14:10.080Z,99.99
2023-03-15T04:15:10.107Z,99.99
2023-03-15T04:16:10.187Z,99.99
2023-03-15T04:17:10.088Z,99.99
2023-03-15T04:18:10.099Z,99.99
2023-03-15T04:19:10.092Z,99.99
2023-03-15T04:20:10.091Z,99.99
2023-03-15T04:21:10.090Z,99.99
2023-03-15T04:22:10.085Z,99.99
2023-03-15T04:23:10.089Z,99.99
2023-03-15T04:24:10.095Z,99.99
2023-03-15T04:25:10.095Z,99.99
2023-03-15T04:26:10.089Z,99.99
2023-03-15T04:27:10.108Z,99.99
2023-03-15T04:28:10.097Z,99.99
2023-03-15T04:29:10.115Z,99.99
2023-03-15T04:30:10.093Z,99.99
2023-03-15T04:31:10.119Z,99.99
2023-03-15T04:32:10.103Z,99.99
2023-03-15T04:33:10.109Z,99.99
2023-03-15T04:34:10.119Z,99.99
2023-03-15T04:35:10.106Z,99.99
2023-03-15T04:36:10.118Z,99.99
2023-03-15T04:37:10.108Z,99.99
2023-03-15T04:38:10.120Z,99.99
2023-03-15T04:39:10.132Z,99.99
2023-03-15T04:40:10.107Z,99.99
2023-03-15T04:41:10.109Z,99.99
2023-03-15T04:42:10.108Z,99.99
2023-03-15T04:43:10.114Z,99.99
2023-03-15T04:44:10.113Z,99.99
2023-03-15T04:45:10.120Z,99.99
2023-03-15T04:46:10.123Z,99.99
2023-03-15T04:47:10.138Z,99.99
2023-03-15T04:48:10.117Z,99.99
2023-03-15T04:49:10.114Z,99.99
2023-03-15T04:50:10.141Z,99.99
2023-03-15T04:51:10.140Z,99.99
2023-03-15T04:52:10.137Z,99.99
2023-03-15T04:53:10.121Z,99.99
2023-03-15T04:54:10.137Z,99.99
2023-03-15T04:55:10.120Z,99.99
2023-03-15T04:56:10.129Z,99.99
2023-03-15T04:57:10.123Z,99.99
2023-03-15T04:58:10.124Z,99.99
2023-03-15T04:59:10.125Z,99.99
2023-03-15T05:00:10.176Z,99.99
2023-03-15T05:01:10.226Z,99.99
2023-03-15T05:02:10.156Z,99.99
2023-03-15T05:03:10.128Z,99.99
2023-03-15T05:04:10.133Z,99.99
2023-03-15T05:05:10.126Z,99.99
2023-03-15T05:06:10.162Z,99.99
2023-03-15T05:07:10.142Z,99.99
2023-03-15T05:08:10.129Z,99.99
2023-03-15T05:09:10.129Z,99.99
2023-03-15T05:10:10.138Z,99.99
2023-03-15T05:11:10.128Z,99.99
2023-03-15T05:12:10.134Z,99.99
2023-03-15T05:13:10.145Z,99.99
2023-03-15T05:14:10.136Z,99.99
2023-03-15T05:15:10.170Z,99.99
2023-03-15T05:16:10.186Z,99.99
2023-03-15T05:17:10.144Z,99.99
2023-03-15T05:18:10.146Z,99.99
2023-03-15T05:19:10.140Z,99.99
2023-03-15T05:20:10.144Z,99.99
2023-03-15T05:21:10.138Z,99.99
2023-03-15T05:22:10.160Z,99.99
2023-03-15T05:23:10.140Z,99.99
2023-03-15T05:24:10.142Z,99.99
2023-03-15T05:25:10.142Z,99.99
2023-03-15T05:26:10.145Z,99.99
2023-03-15T05:27:10.144Z,99.99
2023-03-15T05:28:10.151Z,99.99
2023-03-15T05:29:10.148Z,99.99
2023-03-15T05:30:10.151Z,99.99
2023-03-15T05:31:10.147Z,99.99
2023-03-15T05:32:10.149Z,99.99
2023-03-15T05:33:10.146Z,99.99
2023-03-15T05:34:10.151Z,99.99
2023-03-15T05:35:10.151Z,99.99
2023-03-15T05:36:10.149Z,99.99
2023-03-15T05:37:10.148Z,99.99
2023-03-15T05:38:10.179Z,99.99
2023-03-15T05:39:10.150Z,99.99
2023-03-15T05:40:10.185Z,99.99
2023-03-15T05:41:10.155Z,99.99
2023-03-15T05:42:10.191Z,99.99
2023-03-15T05:43:10.152Z,99.99
2023-03-15T05:44:10.175Z,99.99
2023-03-15T05:45:10.153Z,99.99
2023-03-15T05:46:10.186Z,99.99
2023-03-15T05:47:10.155Z,99.99
2023-03-15T05:48:10.156Z,99.99
2023-03-15T05:49:10.166Z,99.99
2023-03-15T05:50:10.161Z,99.99
2023-03-15T05:51:10.194Z,99.99
2023-03-15T05:52:10.159Z,99.99
2023-03-15T05:53:10.157Z,99.99
2023-03-15T05:54:10.195Z,99.99
2023-03-15T05:55:10.162Z,99.99
2023-03-15T05:56:10.159Z,99.99
2023-03-15T05:57:10.166Z,99.99
2023-03-15T05:58:10.183Z,99.99
2023-03-15T05:59:10.164Z,99.99
2023-03-15T06:00:10.172Z,99.99
2023-03-15T06:01:10.162Z,99.99
2023-03-15T06:02:10.166Z,99.99
2023-03-15T06:03:10.199Z,99.03
2023-03-15T06:04:10.174Z,98.56
2023-03-15T06:05:10.167Z,98.75
2023-03-15T06:06:10.173Z,99.32
2023-03-15T06:07:10.208Z,99.51
2023-03-15T06:08:10.175Z,99.79
2023-03-15T06:09:10.181Z,99.79
2023-03-15T06:10:10.287Z,98.09
2023-03-15T06:11:10.174Z,97.71
2023-03-15T06:12:10.179Z,97.24
2023-03-15T06:13:10.177Z,96.30
2023-03-15T06:14:10.175Z,98.28
2023-03-15T06:15:10.169Z,98.37
2023-03-15T06:16:10.177Z,98.09
2023-03-15T06:17:10.168Z,97.43
2023-03-15T06:18:10.181Z,98.37
2023-03-15T06:19:10.169Z,97.99
2023-03-15T06:20:10.178Z,97.90
2023-03-15T06:21:10.173Z,97.00
2023-03-15T06:22:10.178Z,97.85
2023-03-15T06:23:10.173Z,96.81
2023-03-15T06:24:10.172Z,96.44
2023-03-15T06:25:10.171Z,96.15
2023-03-15T06:26:10.194Z,95.78
2023-03-15T06:27:10.181Z,95.97
2023-03-15T06:28:10.179Z,95.97
2023-03-15T06:29:10.174Z,95.21
2023-03-15T06:30:10.196Z,95.12
2023-03-15T06:31:10.256Z,95.12
2023-03-15T06:32:10.185Z,95.31
2023-03-15T06:33:10.178Z,95.50
2023-03-15T06:34:10.188Z,95.12
2023-03-15T06:35:10.208Z,94.55
2023-03-15T06:36:10.256Z,94.46
2023-03-15T06:37:10.181Z,94.36
2023-03-15T06:38:11.966Z,94.46
2023-03-15T06:39:10.189Z,93.80
2023-03-15T06:40:10.194Z,93.32
2023-03-15T06:41:10.191Z,93.13
2023-03-15T06:42:10.202Z,92.76
2023-03-15T06:43:10.184Z,92.19
2023-03-15T06:44:10.186Z,91.06
2023-03-15T06:45:10.204Z,90.78
2023-03-15T06:46:10.256Z,91.82
2023-03-15T06:47:10.189Z,91.16
2023-03-15T06:48:10.196Z,91.44
2023-03-15T06:49:10.191Z,91.16
2023-03-15T06:50:10.195Z,91.35
2023-03-15T06:51:10.197Z,89.83
2023-03-15T06:52:10.198Z,90.50
2023-03-15T06:53:10.205Z,91.49
2023-03-15T06:54:10.199Z,92.05
2023-03-15T06:55:10.226Z,92.33
2023-03-15T06:56:10.218Z,92.47
2023-03-15T06:57:10.209Z,92.61
2023-03-15T06:58:10.223Z,92.47
2023-03-15T06:59:10.202Z,91.91
2023-03-15T07:00:10.207Z,90.40
2023-03-15T07:01:10.235Z,90.21
2023-03-15T07:02:10.205Z,89.79
2023-03-15T07:03:10.210Z,90.40
2023-03-15T07:04:10.209Z,90.83
2023-03-15T07:05:10.249Z,90.59
2023-03-15T07:06:10.209Z,90.50
2023-03-15T07:07:10.221Z,90.02
2023-03-15T07:08:10.212Z,89.27
2023-03-15T07:09:10.207Z,88.51
2023-03-15T07:10:10.213Z,87.66
2023-03-15T07:11:10.211Z,87.66
2023-03-15T07:12:10.220Z,87.48
2023-03-15T07:13:10.213Z,87.19
2023-03-15T07:14:10.236Z,87.19
2023-03-15T07:15:10.223Z,86.06
2023-03-15T07:16:10.309Z,85.59
2023-03-15T07:17:10.245Z,85.87
2023-03-15T07:18:10.231Z,86.63
2023-03-15T07:19:10.219Z,86.25
2023-03-15T07:20:10.224Z,85.96
2023-03-15T07:21:10.228Z,85.87
2023-03-15T07:22:10.254Z,84.74
2023-03-15T07:23:10.227Z,83.80
2023-03-15T07:24:10.241Z,82.19
2023-03-15T07:25:10.228Z,81.72
2023-03-15T07:26:10.232Z,79.93
2023-03-15T07:27:10.253Z,78.51
2023-03-15T07:28:10.287Z,77.66
2023-03-15T07:29:10.243Z,77.89
2023-03-15T07:30:10.281Z,77.70
2023-03-15T07:31:10.232Z,77.61
2023-03-15T07:32:10.268Z,77.42
2023-03-15T07:33:10.308Z,76.76
2023-03-15T07:34:10.283Z,76.95
2023-03-15T07:35:12.272Z,76.76
2023-03-15T07:36:10.255Z,76.28
2023-03-15T07:37:10.257Z,75.71
2023-03-15T07:38:10.251Z,75.71
2023-03-15T07:39:10.255Z,75.71
2023-03-15T07:40:10.244Z,75.90
2023-03-15T07:41:10.243Z,75.90
2023-03-15T07:42:10.248Z,76.09
2023-03-15T07:43:10.252Z,75.71
2023-03-15T07:44:10.251Z,75.71
2023-03-15T07:45:10.245Z,75.71
2023-03-15T07:46:10.341Z,75.62
2023-03-15T07:47:10.254Z,75.34
2023-03-15T07:48:10.268Z,75.19
2023-03-15T07:49:10.253Z,74.62
2023-03-15T07:50:10.259Z,74.34
2023-03-15T07:51:10.256Z,73.86
2023-03-15T07:52:10.261Z,73.21
2023-03-15T07:53:10.298Z,73.21
2023-03-15T07:54:10.265Z,73.77
2023-03-15T07:55:10.264Z,73.68
2023-03-15T07:56:10.296Z,73.39
2023-03-15T07:57:10.272Z,73.58
2023-03-15T07:58:10.282Z,73.96
2023-03-15T07:59:10.299Z,74.43
2023-03-15T08:00:10.279Z,74.24
2023-03-15T08:01:10.284Z,74.05
2023-03-15T08:02:10.356Z,73.96
2023-03-15T08:03:10.334Z,73.77
2023-03-15T08:04:10.290Z,73.68
2023-03-15T08:05:10.314Z,74.66
2023-03-15T08:06:10.301Z,75.13
2023-03-15T08:07:10.294Z,74.95
2023-03-15T08:08:10.319Z,75.32
2023-03-15T08:09:10.298Z,74.81
2023-03-15T08:10:10.305Z,74.81
2023-03-15T08:11:10.308Z,75.43
2023-03-15T08:12:10.324Z,77.70
2023-03-15T08:13:10.310Z,79.40
2023-03-15T08:14:10.337Z,79.63
2023-03-15T08:15:10.314Z,79.06
2023-03-15T08:16:10.375Z,78.68
2023-03-15T08:17:10.323Z,78.59
2023-03-15T08:18:10.343Z,77.64
2023-03-15T08:19:10.331Z,75.95
2023-03-15T08:20:10.331Z,74.90
2023-03-15T08:21:10.332Z,74.05
2023-03-15T08:22:10.347Z,75.51
2023-03-15T08:23:10.349Z,75.13
2023-03-15T08:24:10.346Z,74.47
2023-03-15T08:25:10.345Z,74.19
2023-03-15T08:26:10.347Z,71.12
2023-03-15T08:27:10.351Z,70.28
2023-03-15T08:28:10.357Z,71.31
2023-03-15T08:29:10.358Z,71.79
2023-03-15T08:30:10.362Z,72.07
2023-03-15T08:31:10.433Z,71.22
2023-03-15T08:32:10.379Z,71.22
2023-03-15T08:33:10.464Z,72.02
2023-03-15T08:34:10.403Z,71.26
2023-03-15T08:35:10.380Z,70.12
2023-03-15T08:36:10.430Z,69.93
2023-03-15T08:37:10.380Z,69.65
2023-03-15T08:38:10.415Z,70.78
2023-03-15T08:39:10.404Z,70.40
2023-03-15T08:40:10.406Z,70.03
2023-03-15T08:41:10.392Z,69.27
2023-03-15T08:42:10.397Z,68.52
2023-03-15T08:43:10.399Z,68.23
2023-03-15T08:44:10.404Z,68.04
2023-03-15T08:45:10.434Z,67.85
2023-03-15T08:46:10.537Z,68.23
2023-03-15T08:47:10.424Z,70.59
2023-03-15T08:48:10.421Z,72.49
2023-03-15T08:49:10.419Z,71.83
2023-03-15T08:50:10.465Z,70.37
2023-03-15T08:51:10.423Z,69.43
2023-03-15T08:52:10.432Z,67.63
2023-03-15T08:53:10.438Z,69.24
2023-03-15T08:54:10.450Z,72.55
2023-03-15T08:55:10.437Z,74.43
2023-03-15T08:56:10.448Z,73.96
2023-03-15T08:57:10.443Z,71.79
2023-03-15T08:58:10.472Z,70.28
2023-03-15T08:59:12.809Z,70.03
2023-03-15T09:00:10.455Z,70.09
2023-03-15T09:01:10.458Z,66.97
2023-03-15T09:02:10.517Z,65.84
2023-03-15T09:03:10.471Z,66.88
2023-03-15T09:04:10.521Z,68.10
2023-03-15T09:05:10.469Z,70.40
2023-03-15T09:06:10.490Z,70.97
2023-03-15T09:07:10.482Z,68.52
2023-03-15T09:08:10.483Z,65.59
2023-03-15T09:09:10.484Z,63.70
2023-03-15T09:10:10.487Z,63.98
2023-03-15T09:11:10.488Z,64.36
2023-03-15T09:12:10.488Z,63.51
2023-03-15T09:13:10.502Z,63.51
2023-03-15T09:14:10.506Z,63.51
2023-03-15T09:15:10.506Z,63.79
2023-03-15T09:16:10.499Z,64.64
2023-03-15T09:17:10.659Z,63.89
2023-03-15T09:18:10.510Z,62.21
2023-03-15T09:19:10.517Z,62.31
2023-03-15T09:20:10.517Z,60.70
2023-03-15T09:21:10.523Z,58.59
2023-03-15T09:22:17.038Z,55.10
2023-03-15T09:23:10.534Z,51.98
2023-03-15T09:24:10.537Z,53.49
2023-03-15T09:25:10.543Z,56.35
2023-03-15T09:26:10.549Z,57.39
2023-03-15T09:27:10.547Z,56.82
2023-03-15T09:28:10.553Z,54.53
2023-03-15T09:29:10.576Z,53.87
2023-03-15T09:30:10.559Z,51.60
2023-03-15T09:31:10.680Z,52.36
2023-03-15T09:32:10.576Z,52.55
2023-03-15T09:33:10.653Z,52.17
2023-03-15T09:34:10.576Z,52.48
2023-03-15T09:35:10.583Z,53.05
2023-03-15T09:36:10.602Z,53.80
2023-03-15T09:37:10.598Z,52.76
2023-03-15T09:38:10.647Z,51.53
2023-03-15T09:39:10.605Z,50.30
2023-03-15T09:40:10.604Z,51.79
2023-03-15T09:41:10.609Z,50.84
2023-03-15T09:42:10.616Z,52.45
2023-03-15T09:43:10.619Z,52.67
2023-03-15T09:44:10.616Z,53.68
2023-03-15T09:45:10.629Z,55.98
2023-03-15T09:46:10.725Z,55.31
2023-03-15T09:47:10.635Z,53.52
2023-03-15T09:48:10.641Z,54.08
2023-03-15T09:49:10.648Z,54.68
2023-03-15T09:50:10.643Z,56.01
2023-03-15T09:51:10.654Z,59.50
2023-03-15T09:52:10.661Z,58.75
2023-03-15T09:53:10.662Z,56.57
2023-03-15T09:54:10.687Z,54.58
2023-03-15T09:55:10.675Z,51.91
2023-03-15T09:56:10.675Z,53.23
2023-03-15T09:57:10.688Z,55.15
2023-03-15T09:58:10.694Z,55.15
2023-03-15T09:59:10.730Z,54.58
2023-03-15T10:00:10.696Z,55.15
2023-03-15T10:01:10.772Z,53.74
2023-03-15T10:02:10.704Z,54.23
2023-03-15T10:03:10.718Z,56.32
2023-03-15T10:04:10.716Z,55.84
2023-03-15T10:05:10.734Z,55.25
2023-03-15T10:06:10.739Z,54.30
2023-03-15T10:07:10.742Z,52.00
2023-03-15T10:08:10.756Z,52.98
2023-03-15T10:09:10.753Z,54.39
2023-03-15T10:10:10.772Z,54.30
2023-03-15T10:11:10.758Z,53.36
2023-03-15T10:12:10.778Z,53.66
2023-03-15T10:13:10.772Z,54.52
2023-03-15T10:14:10.771Z,55.46
2023-03-15T10:15:10.787Z,53.97
2023-03-15T10:16:10.917Z,52.81
2023-03-15T10:17:10.797Z,51.01
2023-03-15T10:18:10.799Z,51.68
2023-03-15T10:19:10.805Z,50.73
2023-03-15T10:20:10.813Z,48.72
2023-03-15T10:21:10.820Z,50.16
2023-03-15T10:22:10.820Z,53.41
2023-03-15T10:23:10.837Z,54.55
2023-03-15T10:24:10.834Z,53.44
2023-03-15T10:25:10.840Z,51.76
2023-03-15T10:26:11.724Z,49.48
2023-03-15T10:27:10.860Z,52.51
2023-03-15T10:28:10.874Z,50.78
2023-03-15T10:29:10.876Z,50.85
2023-03-15T10:30:10.873Z,50.45
2023-03-15T10:31:11.246Z,48.55
2023-03-15T10:32:10.902Z,50.35
2023-03-15T10:33:10.916Z,53.97
2023-03-15T10:34:10.897Z,56.27
2023-03-15T10:35:10.911Z,54.10
2023-03-15T10:36:11.789Z,53.27
2023-03-15T10:37:10.925Z,49.60
2023-03-15T10:38:10.938Z,44.69
2023-03-15T10:39:10.939Z,41.75
2023-03-15T10:40:10.938Z,40.42
2023-03-15T10:41:11.575Z,42.39
2023-03-15T10:42:10.970Z,42.51
2023-03-15T10:43:10.962Z,38.89
2023-03-15T10:44:10.967Z,37.95
2023-03-15T10:45:10.977Z,35.86
2023-03-15T10:46:11.054Z,34.44
2023-03-15T10:47:22.489Z,33.69
2023-03-15T10:48:11.000Z,33.70
2023-03-15T10:49:11.023Z,33.23
2023-03-15T10:50:11.013Z,32.20
2023-03-15T10:51:12.546Z,33.24
2023-03-15T10:52:11.032Z,35.71
2023-03-15T10:53:11.044Z,36.42
2023-03-15T10:54:11.043Z,38.41
2023-03-15T10:55:11.056Z,40.76
2023-03-15T10:56:11.070Z,44.06
2023-03-15T10:57:11.074Z,44.65
2023-03-15T10:58:11.093Z,44.27
2023-03-15T10:59:13.026Z,44.57
2023-03-15T11:00:11.098Z,46.61
2023-03-15T11:01:11.117Z,41.76
2023-03-15T11:02:11.111Z,39.75
2023-03-15T11:03:11.215Z,40.32
2023-03-15T11:04:11.133Z,44.43
2023-03-15T11:05:11.142Z,45.69
2023-03-15T11:06:11.151Z,45.24
2023-03-15T11:07:11.159Z,44.98
2023-03-15T11:08:11.163Z,43.57
2023-03-15T11:09:11.184Z,41.86
2023-03-15T11:10:11.179Z,37.97
2023-03-15T11:11:11.196Z,36.38
2023-03-15T11:12:11.197Z,36.28
2023-03-15T11:13:11.212Z,36.85
2023-03-15T11:14:11.233Z,40.92
2023-03-15T11:15:11.226Z,40.52
2023-03-15T11:16:11.253Z,41.61
2023-03-15T11:17:11.248Z,43.05
2023-03-15T11:18:11.246Z,41.71
2023-03-15T11:19:11.264Z,42.56
2023-03-15T11:20:11.280Z,43.23
2023-03-15T11:21:11.294Z,41.33
2023-03-15T11:22:11.284Z,39.17
2023-03-15T11:23:11.295Z,37.30
2023-03-15T11:24:11.304Z,36.07
2023-03-15T11:25:11.317Z,36.05
2023-03-15T11:26:14.071Z,39.83
2023-03-15T11:27:11.334Z,43.30
2023-03-15T11:28:11.341Z,48.10
2023-03-15T11:29:11.352Z,48.58
2023-03-15T11:30:11.378Z,51.54
2023-03-15T11:31:11.449Z,49.24
2023-03-15T11:32:11.381Z,49.65
2023-03-15T11:33:11.394Z,49.38
2023-03-15T11:34:11.409Z,45.52
2023-03-15T11:35:11.406Z,44.21
2023-03-15T11:36:12.435Z,44.02
2023-03-15T11:37:13.128Z,41.96
2023-03-15T11:38:15.236Z,38.46
2023-03-15T11:39:11.450Z,37.23
2023-03-15T11:40:12.865Z,38.37
2023-03-15T11:41:11.479Z,42.17
2023-03-15T11:42:11.476Z,41.77
2023-03-15T11:43:11.486Z,43.12
2023-03-15T11:44:11.489Z,43.08
2023-03-15T11:45:11.506Z,42.18
2023-03-15T11:46:11.668Z,42.20
2023-03-15T11:47:11.529Z,41.89
2023-03-15T11:48:11.530Z,42.63
2023-03-15T11:49:11.543Z,42.23
2023-03-15T11:50:11.549Z,44.53
2023-03-15T11:51:11.572Z,45.69
2023-03-15T11:52:11.585Z,47.96
2023-03-15T11:53:11.581Z,48.08
2023-03-15T11:54:11.590Z,50.17
2023-03-15T11:55:11.601Z,51.47
2023-03-15T11:56:11.611Z,51.95
2023-03-15T11:57:11.623Z,51.21
2023-03-15T11:58:11.625Z,48.49
2023-03-15T11:59:11.636Z,45.26
2023-03-15T12:00:11.708Z,44.21
2023-03-15T12:01:11.664Z,43.36
2023-03-15T12:02:11.753Z,43.84
2023-03-15T12:03:11.726Z,45.95
2023-03-15T12:04:11.686Z,46.25
2023-03-15T12:05:17.850Z,44.73
2023-03-15T12:06:11.704Z,41.22
2023-03-15T12:07:11.716Z,41.13
2023-03-15T12:08:11.719Z,43.69
2023-03-15T12:09:11.735Z,46.35
2023-03-15T12:10:11.741Z,43.21
2023-03-15T12:11:11.751Z,41.89
2023-03-15T12:12:11.767Z,41.53
2023-03-15T12:13:11.774Z,40.29
2023-03-15T12:14:11.783Z,39.61
2023-03-15T12:15:11.835Z,41.60
2023-03-15T12:16:11.821Z,41.24
2023-03-15T12:17:11.812Z,41.41
2023-03-15T12:18:11.841Z,41.98
2023-03-15T12:19:11.837Z,42.17
2023-03-15T12:20:11.853Z,43.01
2023-03-15T12:21:11.854Z,43.02
2023-03-15T12:22:11.868Z,44.71
2023-03-15T12:23:11.881Z,44.12
2023-03-15T12:24:11.894Z,42.70
2023-03-15T12:25:11.898Z,41.56
2023-03-15T12:26:11.920Z,42.63
2023-03-15T12:27:11.923Z,41.22
2023-03-15T12:28:11.955Z,39.61
2023-03-15T12:29:11.946Z,38.20
2023-03-15T12:30:11.950Z,37.18
2023-03-15T12:31:12.009Z,37.00
2023-03-15T12:32:11.971Z,37.99
2023-03-15T12:33:11.984Z,39.87
2023-03-15T12:34:12.019Z,40.65
2023-03-15T12:35:13.932Z,40.89
2023-03-15T12:36:12.103Z,43.46
2023-03-15T12:37:12.029Z,42.98
2023-03-15T12:38:12.031Z,43.27
2023-03-15T12:39:12.048Z,44.31
2023-03-15T12:40:12.060Z,44.12
2023-03-15T12:41:12.087Z,44.81
2023-03-15T12:42:12.129Z,42.51
2023-03-15T12:43:12.110Z,42.20
2023-03-15T12:44:12.101Z,42.60
2023-03-15T12:45:12.114Z,45.17
2023-03-15T12:46:12.134Z,43.27
2023-03-15T12:47:12.154Z,44.62
2023-03-15T12:48:12.142Z,42.93
2023-03-15T12:49:12.173Z,43.41
2023-03-15T12:50:12.195Z,41.98
2023-03-15T12:51:12.178Z,41.72
2023-03-15T12:52:12.194Z,42.24